Terminal Aerodrome Forecast
Issued by NWS

Home | Current Version | Previous Version | Text Only | Print | Product List | Glossary On
Versions: 1 2 3 4 5 6 7 8 9 10 11 12 13 14 15 16 17 18 19 20 21 22 23
000
FTUS43 KIND 061100
TAFLAF
TAF
KLAF 061120Z 0612/0712 VRB02KT 3SM BR SCT250
      TEMPO 0612/0613 1SM BR
     FM061300 VRB03KT P6SM SCT250
     FM061600 21006KT P6SM SCT060
     FM070000 VRB02KT P6SM SCT250
      AMD LTD TO CLD VIS AND WIND TIL 061300=

USA.gov is the U.S. government's official web portal to all federal, state and local government web resources and services.